Terminal Aerodrome Forecast
Issued by NWS Mt. Holly, NJ

Home | Current Version | Previous Version | Text Only | Print | Product List | Glossary On
Versions: 1 2 3 4 5 6 7 8 9 10 11 12 13 14 15 16 17 18 19 20 21 22 23 24 25 26
000
FTUS41 KPHI 250904 AAA
TAFRDG
TAF AMD
KRDG 250904Z 2509/2606 08008KT P6SM -RA OVC010
      TEMPO 2509/2512 3SM RA BR OVC006
     FM251200 10006KT 6SM -SHRA BR OVC008
     FM251600 10006KT 6SM -SHRA BR OVC015
     FM251700 11006KT P6SM OVC015
     FM252000 10006KT 4SM -SHRA BR OVC015 PROB30 2521/2524 TSRA
      OVC010CB=

USA.gov is the U.S. government's official web portal to all federal, state and local government web resources and services.